sensor_id;sensor_type;location;lat;lon;timestamp;P1;durP1;ratioP1;P2;durP2;ratioP2
8411;SDS011;4243;49.296;11.348;2022-11-11T00:00:20;118.70;;;3.23;;
8411;SDS011;4243;49.296;11.348;2022-11-11T00:03:06;118.47;;;3.33;;
8411;SDS011;4243;49.296;11.348;2022-11-11T00:05:52;119.17;;;3.30;;
8411;SDS011;4243;49.296;11.348;2022-11-11T00:08:39;119.87;;;3.27;;
8411;SDS011;4243;49.296;11.348;2022-11-11T00:11:25;119.77;;;3.33;;
8411;SDS011;4243;49.296;11.348;2022-11-11T00:14:10;118.17;;;3.33;;
8411;SDS011;4243;49.296;11.348;2022-11-11T00:16:56;117.70;;;3.30;;
8411;SDS011;4243;49.296;11.348;2022-11-11T00:20:01;118.57;;;3.37;;
8411;SDS011;4243;49.296;11.348;2022-11-11T00:23:11;119.40;;;3.37;;
8411;SDS011;4243;49.296;11.348;2022-11-11T00:26:26;119.30;;;3.40;;
8411;SDS011;4243;49.296;11.348;2022-11-11T00:29:28;119.03;;;3.40;;
8411;SDS011;4243;49.296;11.348;2022-11-11T00:32:13;118.87;;;3.30;;
8411;SDS011;4243;49.296;11.348;2022-11-11T00:35:10;119.20;;;3.40;;
8411;SDS011;4243;49.296;11.348;2022-11-11T00:38:14;119.13;;;3.30;;
8411;SDS011;4243;49.296;11.348;2022-11-11T00:41:19;117.90;;;3.33;;
8411;SDS011;4243;49.296;11.348;2022-11-11T00:44:07;118.90;;;3.30;;
8411;SDS011;4243;49.296;11.348;2022-11-11T00:46:53;119.13;;;3.37;;
8411;SDS011;4243;49.296;11.348;2022-11-11T00:49:57;119.07;;;3.30;;
8411;SDS011;4243;49.296;11.348;2022-11-11T00:53:09;117.13;;;3.30;;
8411;SDS011;4243;49.296;11.348;2022-11-11T00:56:10;119.37;;;3.30;;
8411;SDS011;4243;49.296;11.348;2022-11-11T00:58:55;119.13;;;3.33;;
8411;SDS011;4243;49.296;11.348;2022-11-11T01:01:42;119.07;;;3.30;;
8411;SDS011;4243;49.296;11.348;2022-11-11T01:04:27;119.57;;;3.30;;
8411;SDS011;4243;49.296;11.348;2022-11-11T01:07:13;119.13;;;3.23;;
8411;SDS011;4243;49.296;11.348;2022-11-11T01:09:59;119.10;;;3.33;;
8411;SDS011;4243;49.296;11.348;2022-11-11T01:12:46;119.10;;;3.30;;
8411;SDS011;4243;49.296;11.348;2022-11-11T01:15:32;119.10;;;3.33;;
8411;SDS011;4243;49.296;11.348;2022-11-11T01:18:19;117.53;;;3.30;;
8411;SDS011;4243;49.296;11.348;2022-11-11T01:24:05;116.87;;;3.30;;
8411;SDS011;4243;49.296;11.348;2022-11-11T01:26:51;118.20;;;3.30;;
8411;SDS011;4243;49.296;11.348;2022-11-11T01:29:37;118.07;;;3.30;;
8411;SDS011;4243;49.296;11.348;2022-11-11T01:32:22;118.93;;;3.27;;
8411;SDS011;4243;49.296;11.348;2022-11-11T01:35:08;119.30;;;3.30;;
8411;SDS011;4243;49.296;11.348;2022-11-11T01:37:55;118.77;;;3.23;;
8411;SDS011;4243;49.296;11.348;2022-11-11T01:40:44;119.00;;;3.30;;
8411;SDS011;4243;49.296;11.348;2022-11-11T01:43:32;119.23;;;3.33;;
8411;SDS011;4243;49.296;11.348;2022-11-11T01:46:35;118.97;;;3.33;;
8411;SDS011;4243;49.296;11.348;2022-11-11T01:49:32;118.87;;;3.30;;
8411;SDS011;4243;49.296;11.348;2022-11-11T01:52:37;118.47;;;3.33;;
8411;SDS011;4243;49.296;11.348;2022-11-11T01:55:27;118.97;;;3.33;;
8411;SDS011;4243;49.296;11.348;2022-11-11T01:58:13;119.20;;;3.33;;
8411;SDS011;4243;49.296;11.348;2022-11-11T02:01:03;118.27;;;3.33;;
8411;SDS011;4243;49.296;11.348;2022-11-11T02:03:50;119.30;;;3.37;;
8411;SDS011;4243;49.296;11.348;2022-11-11T02:06:59;118.77;;;3.33;;
8411;SDS011;4243;49.296;11.348;2022-11-11T02:09:51;119.30;;;3.37;;
8411;SDS011;4243;49.296;11.348;2022-11-11T02:12:38;118.67;;;3.30;;
8411;SDS011;4243;49.296;11.348;2022-11-11T02:15:43;117.67;;;3.30;;
8411;SDS011;4243;49.296;11.348;2022-11-11T02:18:30;117.90;;;3.30;;
8411;SDS011;4243;49.296;11.348;2022-11-11T02:21:32;117.77;;;3.40;;
8411;SDS011;4243;49.296;11.348;2022-11-11T02:24:31;118.87;;;3.37;;
8411;SDS011;4243;49.296;11.348;2022-11-11T02:27:17;119.00;;;3.33;;
8411;SDS011;4243;49.296;11.348;2022-11-11T02:30:05;118.80;;;3.40;;
8411;SDS011;4243;49.296;11.348;2022-11-11T02:32:58;118.30;;;3.37;;
8411;SDS011;4243;49.296;11.348;2022-11-11T02:35:45;119.27;;;3.40;;
8411;SDS011;4243;49.296;11.348;2022-11-11T02:38:40;118.87;;;3.40;;
8411;SDS011;4243;49.296;11.348;2022-11-11T02:41:27;118.67;;;3.40;;
8411;SDS011;4243;49.296;11.348;2022-11-11T02:44:52;118.80;;;3.40;;
8411;SDS011;4243;49.296;11.348;2022-11-11T02:47:42;119.30;;;3.37;;
8411;SDS011;4243;49.296;11.348;2022-11-11T02:50:28;118.90;;;3.37;;
8411;SDS011;4243;49.296;11.348;2022-11-11T02:53:14;119.30;;;3.37;;
8411;SDS011;4243;49.296;11.348;2022-11-11T02:56:01;118.77;;;3.33;;
8411;SDS011;4243;49.296;11.348;2022-11-11T02:58:47;119.23;;;3.40;;
8411;SDS011;4243;49.296;11.348;2022-11-11T03:01:33;119.10;;;3.33;;
8411;SDS011;4243;49.296;11.348;2022-11-11T03:04:18;118.80;;;3.37;;
8411;SDS011;4243;49.296;11.348;2022-11-11T03:07:04;118.97;;;3.40;;
8411;SDS011;4243;49.296;11.348;2022-11-11T03:09:51;119.13;;;3.37;;
8411;SDS011;4243;49.296;11.348;2022-11-11T03:12:36;118.50;;;3.37;;
8411;SDS011;4243;49.296;11.348;2022-11-11T03:15:22;118.97;;;3.37;;
8411;SDS011;4243;49.296;11.348;2022-11-11T03:18:08;119.13;;;3.33;;
8411;SDS011;4243;49.296;11.348;2022-11-11T03:20:54;119.10;;;3.33;;
8411;SDS011;4243;49.296;11.348;2022-11-11T03:24:08;118.17;;;3.40;;
8411;SDS011;4243;49.296;11.348;2022-11-11T03:26:54;118.07;;;3.40;;
8411;SDS011;4243;49.296;11.348;2022-11-11T03:29:39;118.90;;;3.37;;
8411;SDS011;4243;49.296;11.348;2022-11-11T03:32:26;118.80;;;3.43;;
8411;SDS011;4243;49.296;11.348;2022-11-11T03:35:12;119.27;;;3.37;;
8411;SDS011;4243;49.296;11.348;2022-11-11T03:37:58;118.80;;;3.40;;
8411;SDS011;4243;49.296;11.348;2022-11-11T03:41:03;119.27;;;3.40;;
8411;SDS011;4243;49.296;11.348;2022-11-11T03:43:49;119.30;;;3.40;;
8411;SDS011;4243;49.296;11.348;2022-11-11T03:46:34;117.97;;;3.37;;
8411;SDS011;4243;49.296;11.348;2022-11-11T03:49:20;118.17;;;3.43;;
8411;SDS011;4243;49.296;11.348;2022-11-11T03:52:05;118.07;;;3.40;;
8411;SDS011;4243;49.296;11.348;2022-11-11T03:54:52;118.70;;;3.37;;
8411;SDS011;4243;49.296;11.348;2022-11-11T03:57:39;119.00;;;3.40;;
8411;SDS011;4243;49.296;11.348;2022-11-11T04:00:30;119.17;;;3.40;;
8411;SDS011;4243;49.296;11.348;2022-11-11T04:03:17;118.80;;;3.37;;
8411;SDS011;4243;49.296;11.348;2022-11-11T04:06:22;119.03;;;3.40;;
8411;SDS011;4243;49.296;11.348;2022-11-11T04:09:27;119.60;;;3.50;;
8411;SDS011;4243;49.296;11.348;2022-11-11T04:12:32;118.70;;;3.43;;
8411;SDS011;4243;49.296;11.348;2022-11-11T04:15:40;118.37;;;3.43;;
8411;SDS011;4243;49.296;11.348;2022-11-11T04:18:44;119.10;;;3.40;;
8411;SDS011;4243;49.296;11.348;2022-11-11T04:21:49;119.10;;;3.40;;
8411;SDS011;4243;49.296;11.348;2022-11-11T04:24:35;119.23;;;3.33;;
8411;SDS011;4243;49.296;11.348;2022-11-11T04:27:39;117.90;;;3.33;;
8411;SDS011;4243;49.296;11.348;2022-11-11T04:30:25;119.10;;;3.40;;
8411;SDS011;4243;49.296;11.348;2022-11-11T04:33:10;119.27;;;3.37;;
8411;SDS011;4243;49.296;11.348;2022-11-11T04:35:56;118.93;;;3.40;;
8411;SDS011;4243;49.296;11.348;2022-11-11T04:38:43;119.57;;;3.33;;
8411;SDS011;4243;49.296;11.348;2022-11-11T04:41:47;118.80;;;3.37;;
8411;SDS011;4243;49.296;11.348;2022-11-11T04:44:53;118.80;;;3.30;;
8411;SDS011;4243;49.296;11.348;2022-11-11T04:48:05;118.83;;;3.33;;
8411;SDS011;4243;49.296;11.348;2022-11-11T04:50:54;118.90;;;3.30;;
8411;SDS011;4243;49.296;11.348;2022-11-11T04:53:40;119.03;;;3.30;;
8411;SDS011;4243;49.296;11.348;2022-11-11T04:56:25;118.77;;;3.30;;
8411;SDS011;4243;49.296;11.348;2022-11-11T04:59:30;117.67;;;3.23;;
8411;SDS011;4243;49.296;11.348;2022-11-11T05:02:16;119.27;;;3.30;;
8411;SDS011;4243;49.296;11.348;2022-11-11T05:05:21;118.60;;;3.30;;
8411;SDS011;4243;49.296;11.348;2022-11-11T05:08:08;118.90;;;3.37;;
8411;SDS011;4243;49.296;11.348;2022-11-11T05:11:13;118.37;;;3.33;;
8411;SDS011;4243;49.296;11.348;2022-11-11T05:14:01;119.13;;;3.30;;
8411;SDS011;4243;49.296;11.348;2022-11-11T05:17:08;118.93;;;3.37;;
8411;SDS011;4243;49.296;11.348;2022-11-11T05:20:13;119.17;;;3.27;;
8411;SDS011;4243;49.296;11.348;2022-11-11T05:23:22;118.67;;;3.30;;
8411;SDS011;4243;49.296;11.348;2022-11-11T05:26:28;118.30;;;3.30;;
8411;SDS011;4243;49.296;11.348;2022-11-11T05:29:16;118.83;;;3.40;;
8411;SDS011;4243;49.296;11.348;2022-11-11T05:32:03;117.87;;;3.33;;
8411;SDS011;4243;49.296;11.348;2022-11-11T05:34:52;118.73;;;3.23;;
8411;SDS011;4243;49.296;11.348;2022-11-11T05:37:38;118.90;;;3.30;;
8411;SDS011;4243;49.296;11.348;2022-11-11T05:40:24;118.37;;;3.27;;
8411;SDS011;4243;49.296;11.348;2022-11-11T05:43:09;119.17;;;3.30;;
8411;SDS011;4243;49.296;11.348;2022-11-11T05:45:55;117.77;;;3.27;;
8411;SDS011;4243;49.296;11.348;2022-11-11T05:48:42;119.00;;;3.30;;
8411;SDS011;4243;49.296;11.348;2022-11-11T05:51:47;118.47;;;3.27;;
8411;SDS011;4243;49.296;11.348;2022-11-11T05:54:33;118.50;;;3.30;;
8411;SDS011;4243;49.296;11.348;2022-11-11T05:57:19;118.60;;;3.30;;
8411;SDS011;4243;49.296;11.348;2022-11-11T06:00:05;118.90;;;3.37;;
8411;SDS011;4243;49.296;11.348;2022-11-11T06:02:52;118.90;;;3.30;;
8411;SDS011;4243;49.296;11.348;2022-11-11T06:05:38;118.17;;;3.27;;
8411;SDS011;4243;49.296;11.348;2022-11-11T06:08:24;118.93;;;3.37;;
8411;SDS011;4243;49.296;11.348;2022-11-11T06:11:10;117.63;;;3.27;;
8411;SDS011;4243;49.296;11.348;2022-11-11T06:13:56;119.07;;;3.33;;
8411;SDS011;4243;49.296;11.348;2022-11-11T06:16:42;118.67;;;3.30;;
8411;SDS011;4243;49.296;11.348;2022-11-11T06:19:27;118.70;;;3.30;;
8411;SDS011;4243;49.296;11.348;2022-11-11T06:22:13;118.70;;;3.30;;
8411;SDS011;4243;49.296;11.348;2022-11-11T06:25:19;118.27;;;3.23;;
8411;SDS011;4243;49.296;11.348;2022-11-11T06:28:24;118.17;;;3.33;;
8411;SDS011;4243;49.296;11.348;2022-11-11T06:31:11;119.00;;;3.27;;
8411;SDS011;4243;49.296;11.348;2022-11-11T06:34:01;118.97;;;3.40;;
8411;SDS011;4243;49.296;11.348;2022-11-11T06:36:46;118.60;;;3.33;;
8411;SDS011;4243;49.296;11.348;2022-11-11T06:39:32;118.67;;;3.30;;
8411;SDS011;4243;49.296;11.348;2022-11-11T06:42:18;118.60;;;3.30;;
8411;SDS011;4243;49.296;11.348;2022-11-11T06:45:03;118.80;;;3.30;;
8411;SDS011;4243;49.296;11.348;2022-11-11T06:47:50;118.50;;;3.30;;
8411;SDS011;4243;49.296;11.348;2022-11-11T06:50:35;118.33;;;3.30;;
8411;SDS011;4243;49.296;11.348;2022-11-11T06:53:21;118.10;;;3.30;;
8411;SDS011;4243;49.296;11.348;2022-11-11T06:56:08;118.67;;;3.30;;
8411;SDS011;4243;49.296;11.348;2022-11-11T06:58:56;118.43;;;3.30;;
8411;SDS011;4243;49.296;11.348;2022-11-11T07:01:42;118.00;;;3.27;;
8411;SDS011;4243;49.296;11.348;2022-11-11T07:04:28;117.67;;;3.17;;
8411;SDS011;4243;49.296;11.348;2022-11-11T07:07:14;118.57;;;3.10;;
8411;SDS011;4243;49.296;11.348;2022-11-11T07:10:00;118.50;;;3.10;;
8411;SDS011;4243;49.296;11.348;2022-11-11T07:12:46;118.17;;;3.10;;
8411;SDS011;4243;49.296;11.348;2022-11-11T07:15:32;117.73;;;3.13;;
8411;SDS011;4243;49.296;11.348;2022-11-11T07:18:19;117.80;;;3.10;;
8411;SDS011;4243;49.296;11.348;2022-11-11T07:21:05;117.23;;;3.00;;
8411;SDS011;4243;49.296;11.348;2022-11-11T07:23:51;118.07;;;3.13;;
8411;SDS011;4243;49.296;11.348;2022-11-11T07:26:36;117.60;;;3.10;;
8411;SDS011;4243;49.296;11.348;2022-11-11T07:29:22;115.27;;;3.10;;
8411;SDS011;4243;49.296;11.348;2022-11-11T07:32:08;117.87;;;3.10;;
8411;SDS011;4243;49.296;11.348;2022-11-11T07:34:53;114.87;;;3.10;;
8411;SDS011;4243;49.296;11.348;2022-11-11T07:37:39;118.37;;;3.17;;
8411;SDS011;4243;49.296;11.348;2022-11-11T07:40:25;118.10;;;3.07;;
8411;SDS011;4243;49.296;11.348;2022-11-11T07:43:11;117.57;;;3.10;;
8411;SDS011;4243;49.296;11.348;2022-11-11T07:45:57;118.17;;;3.00;;
8411;SDS011;4243;49.296;11.348;2022-11-11T07:48:43;118.10;;;3.10;;
8411;SDS011;4243;49.296;11.348;2022-11-11T07:51:29;117.90;;;3.10;;
8411;SDS011;4243;49.296;11.348;2022-11-11T07:54:15;116.67;;;3.10;;
8411;SDS011;4243;49.296;11.348;2022-11-11T07:57:01;117.77;;;3.00;;
8411;SDS011;4243;49.296;11.348;2022-11-11T07:59:47;118.17;;;2.93;;
8411;SDS011;4243;49.296;11.348;2022-11-11T08:02:33;117.50;;;3.00;;
8411;SDS011;4243;49.296;11.348;2022-11-11T08:05:19;118.10;;;3.00;;
8411;SDS011;4243;49.296;11.348;2022-11-11T08:08:05;116.27;;;2.90;;
8411;SDS011;4243;49.296;11.348;2022-11-11T08:10:53;117.67;;;3.00;;
8411;SDS011;4243;49.296;11.348;2022-11-11T08:13:40;117.63;;;2.97;;
8411;SDS011;4243;49.296;11.348;2022-11-11T08:16:27;117.30;;;2.80;;
8411;SDS011;4243;49.296;11.348;2022-11-11T08:19:13;118.00;;;2.83;;
8411;SDS011;4243;49.296;11.348;2022-11-11T08:21:58;117.40;;;2.80;;
8411;SDS011;4243;49.296;11.348;2022-11-11T08:24:44;117.80;;;2.87;;
8411;SDS011;4243;49.296;11.348;2022-11-11T08:27:48;118.47;;;3.10;;
8411;SDS011;4243;49.296;11.348;2022-11-11T08:30:44;117.37;;;2.87;;
8411;SDS011;4243;49.296;11.348;2022-11-11T08:33:32;118.23;;;3.03;;
8411;SDS011;4243;49.296;11.348;2022-11-11T08:36:28;117.80;;;2.87;;
8411;SDS011;4243;49.296;11.348;2022-11-11T08:39:13;117.17;;;2.80;;
8411;SDS011;4243;49.296;11.348;2022-11-11T08:41:59;118.03;;;2.90;;
8411;SDS011;4243;49.296;11.348;2022-11-11T08:44:45;117.37;;;2.93;;
8411;SDS011;4243;49.296;11.348;2022-11-11T08:47:31;118.27;;;3.00;;
8411;SDS011;4243;49.296;11.348;2022-11-11T08:50:17;118.30;;;2.90;;
8411;SDS011;4243;49.296;11.348;2022-11-11T08:53:04;117.90;;;2.67;;
8411;SDS011;4243;49.296;11.348;2022-11-11T08:55:54;118.30;;;2.90;;
8411;SDS011;4243;49.296;11.348;2022-11-11T08:58:39;117.63;;;2.90;;
8411;SDS011;4243;49.296;11.348;2022-11-11T09:03:54;118.37;;;2.80;;
8411;SDS011;4243;49.296;11.348;2022-11-11T09:06:55;118.97;;;3.10;;
8411;SDS011;4243;49.296;11.348;2022-11-11T09:09:41;117.77;;;2.97;;
8411;SDS011;4243;49.296;11.348;2022-11-11T09:12:27;118.87;;;3.07;;
8411;SDS011;4243;49.296;11.348;2022-11-11T09:15:12;118.27;;;2.90;;
8411;SDS011;4243;49.296;11.348;2022-11-11T09:17:58;118.33;;;3.10;;
8411;SDS011;4243;49.296;11.348;2022-11-11T09:20:47;117.77;;;2.97;;
8411;SDS011;4243;49.296;11.348;2022-11-11T09:23:32;118.57;;;2.97;;
8411;SDS011;4243;49.296;11.348;2022-11-11T09:26:18;117.87;;;2.97;;
8411;SDS011;4243;49.296;11.348;2022-11-11T09:29:03;118.47;;;2.80;;
8411;SDS011;4243;49.296;11.348;2022-11-11T09:31:49;118.10;;;2.80;;
8411;SDS011;4243;49.296;11.348;2022-11-11T09:34:34;118.57;;;2.80;;
8411;SDS011;4243;49.296;11.348;2022-11-11T09:37:20;118.03;;;2.80;;
8411;SDS011;4243;49.296;11.348;2022-11-11T09:40:08;118.47;;;2.90;;
8411;SDS011;4243;49.296;11.348;2022-11-11T09:43:16;118.47;;;3.00;;
8411;SDS011;4243;49.296;11.348;2022-11-11T09:46:32;118.47;;;2.90;;
8411;SDS011;4243;49.296;11.348;2022-11-11T09:53:00;117.50;;;3.00;;
8411;SDS011;4243;49.296;11.348;2022-11-11T09:59:15;118.77;;;2.80;;
8411;SDS011;4243;49.296;11.348;2022-11-11T10:02:23;117.83;;;3.00;;
8411;SDS011;4243;49.296;11.348;2022-11-11T10:08:53;117.60;;;2.97;;
8411;SDS011;4243;49.296;11.348;2022-11-11T10:12:09;118.10;;;3.00;;
8411;SDS011;4243;49.296;11.348;2022-11-11T10:14:59;118.23;;;2.97;;
8411;SDS011;4243;49.296;11.348;2022-11-11T10:18:04;118.40;;;3.37;;
8411;SDS011;4243;49.296;11.348;2022-11-11T10:21:31;118.27;;;3.50;;
8411;SDS011;4243;49.296;11.348;2022-11-11T10:25:07;118.17;;;2.83;;
8411;SDS011;4243;49.296;11.348;2022-11-11T10:28:12;118.80;;;2.60;;
8411;SDS011;4243;49.296;11.348;2022-11-11T10:31:08;118.20;;;2.50;;
8411;SDS011;4243;49.296;11.348;2022-11-11T10:34:09;118.70;;;2.53;;
8411;SDS011;4243;49.296;11.348;2022-11-11T10:36:59;118.80;;;2.40;;
8411;SDS011;4243;49.296;11.348;2022-11-11T10:43:23;118.73;;;2.37;;
8411;SDS011;4243;49.296;11.348;2022-11-11T10:46:17;118.10;;;2.40;;
8411;SDS011;4243;49.296;11.348;2022-11-11T10:49:27;118.47;;;2.40;;
8411;SDS011;4243;49.296;11.348;2022-11-11T10:52:21;118.27;;;2.53;;
8411;SDS011;4243;49.296;11.348;2022-11-11T10:55:20;118.53;;;2.80;;
8411;SDS011;4243;49.296;11.348;2022-11-11T11:01:47;118.37;;;2.33;;
8411;SDS011;4243;49.296;11.348;2022-11-11T11:05:02;118.37;;;2.33;;
8411;SDS011;4243;49.296;11.348;2022-11-11T11:08:08;117.50;;;2.37;;
8411;SDS011;4243;49.296;11.348;2022-11-11T11:11:12;117.47;;;2.47;;
8411;SDS011;4243;49.296;11.348;2022-11-11T11:14:29;117.47;;;2.40;;
8411;SDS011;4243;49.296;11.348;2022-11-11T11:17:24;117.03;;;2.27;;
8411;SDS011;4243;49.296;11.348;2022-11-11T11:20:35;116.63;;;2.10;;
8411;SDS011;4243;49.296;11.348;2022-11-11T11:23:40;117.00;;;2.40;;
8411;SDS011;4243;49.296;11.348;2022-11-11T11:26:44;116.90;;;2.20;;
8411;SDS011;4243;49.296;11.348;2022-11-11T11:29:39;116.87;;;2.10;;
8411;SDS011;4243;49.296;11.348;2022-11-11T11:32:31;117.10;;;2.17;;
8411;SDS011;4243;49.296;11.348;2022-11-11T11:38:39;116.90;;;2.03;;
8411;SDS011;4243;49.296;11.348;2022-11-11T11:41:42;116.80;;;2.20;;
8411;SDS011;4243;49.296;11.348;2022-11-11T11:44:36;116.13;;;2.07;;
8411;SDS011;4243;49.296;11.348;2022-11-11T11:47:36;116.80;;;2.23;;
8411;SDS011;4243;49.296;11.348;2022-11-11T11:51:26;116.20;;;2.57;;
8411;SDS011;4243;49.296;11.348;2022-11-11T11:54:40;116.40;;;2.40;;
8411;SDS011;4243;49.296;11.348;2022-11-11T12:00:37;115.80;;;2.20;;
8411;SDS011;4243;49.296;11.348;2022-11-11T12:03:55;115.70;;;1.93;;
8411;SDS011;4243;49.296;11.348;2022-11-11T12:16:51;116.90;;;2.70;;
8411;SDS011;4243;49.296;11.348;2022-11-11T12:20:40;118.00;;;2.43;;
8411;SDS011;4243;49.296;11.348;2022-11-11T12:24:05;117.40;;;2.20;;
8411;SDS011;4243;49.296;11.348;2022-11-11T12:27:37;117.50;;;2.20;;
8411;SDS011;4243;49.296;11.348;2022-11-11T12:37:12;117.90;;;2.30;;
8411;SDS011;4243;49.296;11.348;2022-11-11T12:49:52;118.10;;;2.40;;
8411;SDS011;4243;49.296;11.348;2022-11-11T13:12:52;118.30;;;2.47;;
8411;SDS011;4243;49.296;11.348;2022-11-11T13:16:20;117.80;;;2.40;;
8411;SDS011;4243;49.296;11.348;2022-11-11T13:22:24;117.20;;;2.40;;
8411;SDS011;4243;49.296;11.348;2022-11-11T13:25:14;118.17;;;2.37;;
8411;SDS011;4243;49.296;11.348;2022-11-11T13:28:28;118.00;;;2.37;;
8411;SDS011;4243;49.296;11.348;2022-11-11T13:31:35;117.67;;;2.30;;
8411;SDS011;4243;49.296;11.348;2022-11-11T13:34:25;117.30;;;2.30;;
8411;SDS011;4243;49.296;11.348;2022-11-11T13:37:24;117.70;;;2.23;;
8411;SDS011;4243;49.296;11.348;2022-11-11T13:40:27;117.47;;;2.30;;
8411;SDS011;4243;49.296;11.348;2022-11-11T13:43:27;117.70;;;2.30;;
8411;SDS011;4243;49.296;11.348;2022-11-11T13:49:22;117.77;;;2.20;;
8411;SDS011;4243;49.296;11.348;2022-11-11T13:52:30;117.50;;;2.40;;
8411;SDS011;4243;49.296;11.348;2022-11-11T13:55:27;118.07;;;2.40;;
8411;SDS011;4243;49.296;11.348;2022-11-11T13:58:32;118.10;;;2.40;;
8411;SDS011;4243;49.296;11.348;2022-11-11T14:01:23;118.10;;;2.37;;
8411;SDS011;4243;49.296;11.348;2022-11-11T14:04:26;118.40;;;2.43;;
8411;SDS011;4243;49.296;11.348;2022-11-11T14:07:32;117.90;;;2.50;;
8411;SDS011;4243;49.296;11.348;2022-11-11T14:16:08;118.93;;;2.60;;
8411;SDS011;4243;49.296;11.348;2022-11-11T14:18:56;118.50;;;2.40;;
8411;SDS011;4243;49.296;11.348;2022-11-11T14:24:44;118.57;;;2.47;;
8411;SDS011;4243;49.296;11.348;2022-11-11T14:27:32;118.20;;;2.50;;
8411;SDS011;4243;49.296;11.348;2022-11-11T14:30:29;118.90;;;2.40;;
8411;SDS011;4243;49.296;11.348;2022-11-11T14:33:37;118.60;;;2.60;;
8411;SDS011;4243;49.296;11.348;2022-11-11T14:36:48;118.43;;;2.50;;
8411;SDS011;4243;49.296;11.348;2022-11-11T14:39:58;118.37;;;2.60;;
8411;SDS011;4243;49.296;11.348;2022-11-11T14:42:44;119.57;;;2.53;;
8411;SDS011;4243;49.296;11.348;2022-11-11T14:54:52;119.30;;;2.67;;
8411;SDS011;4243;49.296;11.348;2022-11-11T15:00:48;119.50;;;2.80;;
8411;SDS011;4243;49.296;11.348;2022-11-11T15:03:43;119.33;;;2.63;;
8411;SDS011;4243;49.296;11.348;2022-11-11T15:09:38;118.57;;;2.50;;
8411;SDS011;4243;49.296;11.348;2022-11-11T15:19:55;119.73;;;2.50;;
8411;SDS011;4243;49.296;11.348;2022-11-11T15:23:42;119.67;;;2.50;;
8411;SDS011;4243;49.296;11.348;2022-11-11T15:30:37;120.37;;;2.50;;
8411;SDS011;4243;49.296;11.348;2022-11-11T15:37:02;118.70;;;2.63;;
8411;SDS011;4243;49.296;11.348;2022-11-11T15:40:04;120.37;;;2.70;;
8411;SDS011;4243;49.296;11.348;2022-11-11T15:42:51;120.77;;;2.63;;
8411;SDS011;4243;49.296;11.348;2022-11-11T15:45:38;120.30;;;2.70;;
8411;SDS011;4243;49.296;11.348;2022-11-11T15:48:25;120.70;;;2.67;;
8411;SDS011;4243;49.296;11.348;2022-11-11T15:54:18;120.97;;;2.77;;
8411;SDS011;4243;49.296;11.348;2022-11-11T16:00:29;120.07;;;2.73;;
8411;SDS011;4243;49.296;11.348;2022-11-11T16:03:17;120.63;;;2.77;;
8411;SDS011;4243;49.296;11.348;2022-11-11T16:06:12;121.10;;;2.70;;
8411;SDS011;4243;49.296;11.348;2022-11-11T16:09:00;120.37;;;2.70;;
8411;SDS011;4243;49.296;11.348;2022-11-11T16:11:47;120.20;;;2.80;;
8411;SDS011;4243;49.296;11.348;2022-11-11T16:14:42;120.77;;;2.80;;
8411;SDS011;4243;49.296;11.348;2022-11-11T16:17:35;120.93;;;2.80;;
8411;SDS011;4243;49.296;11.348;2022-11-11T16:20:27;120.50;;;2.77;;
8411;SDS011;4243;49.296;11.348;2022-11-11T16:23:44;120.50;;;2.87;;
8411;SDS011;4243;49.296;11.348;2022-11-11T16:26:32;120.27;;;2.80;;
8411;SDS011;4243;49.296;11.348;2022-11-11T16:29:19;120.60;;;2.80;;
8411;SDS011;4243;49.296;11.348;2022-11-11T16:32:16;120.07;;;2.87;;
8411;SDS011;4243;49.296;11.348;2022-11-11T16:38:30;120.40;;;2.90;;
8411;SDS011;4243;49.296;11.348;2022-11-11T16:41:24;120.47;;;2.90;;
8411;SDS011;4243;49.296;11.348;2022-11-11T16:44:28;120.33;;;2.90;;
8411;SDS011;4243;49.296;11.348;2022-11-11T16:50:21;120.77;;;2.83;;
8411;SDS011;4243;49.296;11.348;2022-11-11T16:53:18;120.50;;;2.87;;
8411;SDS011;4243;49.296;11.348;2022-11-11T16:56:21;120.20;;;2.83;;
8411;SDS011;4243;49.296;11.348;2022-11-11T17:02:23;120.30;;;2.90;;
8411;SDS011;4243;49.296;11.348;2022-11-11T17:05:10;119.97;;;3.00;;
8411;SDS011;4243;49.296;11.348;2022-11-11T17:07:56;120.27;;;2.90;;
8411;SDS011;4243;49.296;11.348;2022-11-11T17:10:41;119.57;;;3.00;;
8411;SDS011;4243;49.296;11.348;2022-11-11T17:13:27;120.10;;;3.00;;
8411;SDS011;4243;49.296;11.348;2022-11-11T17:16:14;119.77;;;2.87;;
8411;SDS011;4243;49.296;11.348;2022-11-11T17:19:00;119.90;;;2.97;;
8411;SDS011;4243;49.296;11.348;2022-11-11T17:21:47;120.20;;;3.00;;
8411;SDS011;4243;49.296;11.348;2022-11-11T17:24:33;120.30;;;2.90;;
8411;SDS011;4243;49.296;11.348;2022-11-11T17:27:19;120.50;;;2.90;;
8411;SDS011;4243;49.296;11.348;2022-11-11T17:30:06;119.67;;;3.00;;
8411;SDS011;4243;49.296;11.348;2022-11-11T17:32:54;120.10;;;3.00;;
8411;SDS011;4243;49.296;11.348;2022-11-11T17:35:48;120.37;;;3.10;;
8411;SDS011;4243;49.296;11.348;2022-11-11T17:38:35;119.83;;;3.00;;
8411;SDS011;4243;49.296;11.348;2022-11-11T17:41:21;120.20;;;3.20;;
8411;SDS011;4243;49.296;11.348;2022-11-11T17:44:07;120.30;;;3.00;;
8411;SDS011;4243;49.296;11.348;2022-11-11T17:46:53;116.83;;;3.00;;
8411;SDS011;4243;49.296;11.348;2022-11-11T17:49:39;120.13;;;3.10;;
8411;SDS011;4243;49.296;11.348;2022-11-11T17:52:40;119.27;;;2.90;;
8411;SDS011;4243;49.296;11.348;2022-11-11T17:55:26;120.20;;;3.00;;
8411;SDS011;4243;49.296;11.348;2022-11-11T17:58:12;118.40;;;2.93;;
8411;SDS011;4243;49.296;11.348;2022-11-11T18:01:08;119.70;;;3.03;;
8411;SDS011;4243;49.296;11.348;2022-11-11T18:03:58;117.87;;;2.97;;
8411;SDS011;4243;49.296;11.348;2022-11-11T18:06:44;119.70;;;3.00;;
8411;SDS011;4243;49.296;11.348;2022-11-11T18:09:30;118.30;;;3.00;;
8411;SDS011;4243;49.296;11.348;2022-11-11T18:12:16;119.43;;;3.03;;
8411;SDS011;4243;49.296;11.348;2022-11-11T18:15:03;119.90;;;3.00;;
8411;SDS011;4243;49.296;11.348;2022-11-11T18:17:50;118.37;;;3.00;;
8411;SDS011;4243;49.296;11.348;2022-11-11T18:20:36;117.07;;;3.10;;
8411;SDS011;4243;49.296;11.348;2022-11-11T18:23:22;120.10;;;3.00;;
8411;SDS011;4243;49.296;11.348;2022-11-11T18:26:07;119.70;;;3.00;;
8411;SDS011;4243;49.296;11.348;2022-11-11T18:28:53;119.80;;;3.07;;
8411;SDS011;4243;49.296;11.348;2022-11-11T18:31:39;119.77;;;3.17;;
8411;SDS011;4243;49.296;11.348;2022-11-11T18:34:24;119.70;;;3.10;;
8411;SDS011;4243;49.296;11.348;2022-11-11T18:37:10;120.10;;;3.03;;
8411;SDS011;4243;49.296;11.348;2022-11-11T18:39:56;120.17;;;3.03;;
8411;SDS011;4243;49.296;11.348;2022-11-11T18:42:42;119.17;;;3.03;;
8411;SDS011;4243;49.296;11.348;2022-11-11T18:45:27;119.93;;;3.10;;
8411;SDS011;4243;49.296;11.348;2022-11-11T18:48:14;118.97;;;3.00;;
8411;SDS011;4243;49.296;11.348;2022-11-11T18:51:00;119.90;;;3.10;;
8411;SDS011;4243;49.296;11.348;2022-11-11T18:53:47;118.87;;;3.03;;
8411;SDS011;4243;49.296;11.348;2022-11-11T18:56:34;119.57;;;3.03;;
8411;SDS011;4243;49.296;11.348;2022-11-11T18:59:23;117.97;;;3.00;;
8411;SDS011;4243;49.296;11.348;2022-11-11T19:02:10;119.77;;;3.10;;
8411;SDS011;4243;49.296;11.348;2022-11-11T19:04:55;118.77;;;3.00;;
8411;SDS011;4243;49.296;11.348;2022-11-11T19:07:42;118.57;;;3.00;;
8411;SDS011;4243;49.296;11.348;2022-11-11T19:10:31;118.87;;;3.10;;
8411;SDS011;4243;49.296;11.348;2022-11-11T19:13:17;119.37;;;3.00;;
8411;SDS011;4243;49.296;11.348;2022-11-11T19:16:10;120.17;;;3.10;;
8411;SDS011;4243;49.296;11.348;2022-11-11T19:19:01;118.83;;;3.07;;
8411;SDS011;4243;49.296;11.348;2022-11-11T19:21:47;119.70;;;3.10;;